Rochester, Wisconsin
Current Conditions -  °F | °C
As of 4:55 AM on Friday 31 Oct 2014 (Local Time) from KBUU Reporting Station
Light Snow Light Snow  
Wind Chill: 24°   Ceiling: 2900
Heat Index: 34°   Visibility: 3mi
Dew Point: 28°   Wind: 15mph
Humidity: 79%   Direction: 340°NNW
Pressure: 30.08"   Gusts: 29mph
Location:  42.74°N, 88.22°W
Report Text: KBUU 310955Z AUTO 34013G25KT 3SM -SN SCT008 BKN029 OVC046 01/M02 A3008 RMK AO2 T00111021
Loading
Personal Weather Stations






























Interactive Weather Map
Tropical Storm Tracking
New forecast layout! Learn more

10-Day Weather Forecast

Advertisements
Track Severe Weather on mobile